sensor_id;sensor_type;location;lat;lon;timestamp;temperature;humidity
33803;DHT22;20110;53.120;5.786;2023-06-14T00:01:59;12.00;1.00
33803;DHT22;20110;53.120;5.786;2023-06-14T00:04:25;12.00;28.80
33803;DHT22;20110;53.120;5.786;2023-06-14T00:06:51;12.00;1.00
33803;DHT22;20110;53.120;5.786;2023-06-14T00:09:18;12.00;1.00
33803;DHT22;20110;53.120;5.786;2023-06-14T00:11:44;12.00;1.00
33803;DHT22;20110;53.120;5.786;2023-06-14T00:14:10;12.00;25.20
33803;DHT22;20110;53.120;5.786;2023-06-14T00:16:35;12.00;1.00
33803;DHT22;20110;53.120;5.786;2023-06-14T00:19:02;12.00;1.00
33803;DHT22;20110;53.120;5.786;2023-06-14T00:21:29;12.00;1.00
33803;DHT22;20110;53.120;5.786;2023-06-14T00:23:58;12.00;1.00
33803;DHT22;20110;53.120;5.786;2023-06-14T00:26:25;12.00;1.00
33803;DHT22;20110;53.120;5.786;2023-06-14T00:28:52;11.90;1.00
33803;DHT22;20110;53.120;5.786;2023-06-14T00:31:18;11.90;24.00
33803;DHT22;20110;53.120;5.786;2023-06-14T00:33:44;11.90;81.50
33803;DHT22;20110;53.120;5.786;2023-06-14T00:36:11;11.90;1.00
33803;DHT22;20110;53.120;5.786;2023-06-14T00:38:37;11.90;77.80
33803;DHT22;20110;53.120;5.786;2023-06-14T00:41:03;11.80;58.50
33803;DHT22;20110;53.120;5.786;2023-06-14T00:43:29;11.80;13.10
33803;DHT22;20110;53.120;5.786;2023-06-14T00:45:55;11.80;17.20
33803;DHT22;20110;53.120;5.786;2023-06-14T00:48:22;11.80;40.50
33803;DHT22;20110;53.120;5.786;2023-06-14T00:50:49;11.70;36.30
33803;DHT22;20110;53.120;5.786;2023-06-14T00:53:18;11.60;64.80
33803;DHT22;20110;53.120;5.786;2023-06-14T00:55:46;11.50;17.70
33803;DHT22;20110;53.120;5.786;2023-06-14T00:58:13;11.50;26.10
33803;DHT22;20110;53.120;5.786;2023-06-14T01:00:40;11.40;94.60
33803;DHT22;20110;53.120;5.786;2023-06-14T01:03:06;11.30;51.90
33803;DHT22;20110;53.120;5.786;2023-06-14T01:05:31;11.30;57.40
33803;DHT22;20110;53.120;5.786;2023-06-14T01:11:05;11.20;99.90
33803;DHT22;20110;53.120;5.786;2023-06-14T01:13:43;11.10;99.90
33803;DHT22;20110;53.120;5.786;2023-06-14T01:16:12;11.10;99.90
33803;DHT22;20110;53.120;5.786;2023-06-14T01:18:39;11.10;99.90
33803;DHT22;20110;53.120;5.786;2023-06-14T01:21:20;11.10;99.90
33803;DHT22;20110;53.120;5.786;2023-06-14T01:23:47;11.10;99.90
33803;DHT22;20110;53.120;5.786;2023-06-14T01:26:19;11.10;99.90
33803;DHT22;20110;53.120;5.786;2023-06-14T01:28:46;11.20;99.90
33803;DHT22;20110;53.120;5.786;2023-06-14T01:31:19;11.20;99.90
33803;DHT22;20110;53.120;5.786;2023-06-14T01:33:48;11.20;99.90
33803;DHT22;20110;53.120;5.786;2023-06-14T01:36:18;11.20;99.90
33803;DHT22;20110;53.120;5.786;2023-06-14T01:38:46;11.20;99.90
33803;DHT22;20110;53.120;5.786;2023-06-14T01:41:15;11.20;99.90
33803;DHT22;20110;53.120;5.786;2023-06-14T01:43:43;11.10;99.90
33803;DHT22;20110;53.120;5.786;2023-06-14T01:46:11;11.10;99.90
33803;DHT22;20110;53.120;5.786;2023-06-14T01:48:40;11.10;99.90
33803;DHT22;20110;53.120;5.786;2023-06-14T01:51:06;11.10;99.90
33803;DHT22;20110;53.120;5.786;2023-06-14T01:53:32;11.10;99.90
33803;DHT22;20110;53.120;5.786;2023-06-14T01:55:58;11.10;99.90
33803;DHT22;20110;53.120;5.786;2023-06-14T01:58:24;11.10;99.90
33803;DHT22;20110;53.120;5.786;2023-06-14T02:00:51;11.10;99.90
33803;DHT22;20110;53.120;5.786;2023-06-14T02:03:20;11.00;99.90
33803;DHT22;20110;53.120;5.786;2023-06-14T02:05:46;11.00;99.90
33803;DHT22;20110;53.120;5.786;2023-06-14T02:08:12;11.00;99.90
33803;DHT22;20110;53.120;5.786;2023-06-14T02:10:38;10.90;99.90
33803;DHT22;20110;53.120;5.786;2023-06-14T02:13:04;10.90;99.90
33803;DHT22;20110;53.120;5.786;2023-06-14T02:15:30;10.90;99.90
33803;DHT22;20110;53.120;5.786;2023-06-14T02:18:00;10.90;99.90
33803;DHT22;20110;53.120;5.786;2023-06-14T02:20:27;10.80;99.90
33803;DHT22;20110;53.120;5.786;2023-06-14T02:22:53;10.80;99.90
33803;DHT22;20110;53.120;5.786;2023-06-14T02:25:20;10.70;99.90
33803;DHT22;20110;53.120;5.786;2023-06-14T02:27:46;10.70;99.90
33803;DHT22;20110;53.120;5.786;2023-06-14T02:30:12;10.70;99.90
33803;DHT22;20110;53.120;5.786;2023-06-14T02:32:38;10.60;99.90
33803;DHT22;20110;53.120;5.786;2023-06-14T02:35:06;10.60;99.90
33803;DHT22;20110;53.120;5.786;2023-06-14T02:37:33;10.50;99.90
33803;DHT22;20110;53.120;5.786;2023-06-14T02:40:00;10.50;99.90
33803;DHT22;20110;53.120;5.786;2023-06-14T02:42:26;10.40;99.90
33803;DHT22;20110;53.120;5.786;2023-06-14T02:44:52;10.40;99.90
33803;DHT22;20110;53.120;5.786;2023-06-14T02:47:18;10.40;99.90
33803;DHT22;20110;53.120;5.786;2023-06-14T02:49:45;10.30;99.90
33803;DHT22;20110;53.120;5.786;2023-06-14T02:52:15;10.30;99.90
33803;DHT22;20110;53.120;5.786;2023-06-14T02:54:41;10.20;99.90
33803;DHT22;20110;53.120;5.786;2023-06-14T02:57:07;10.20;99.90
33803;DHT22;20110;53.120;5.786;2023-06-14T02:59:34;10.10;99.90
33803;DHT22;20110;53.120;5.786;2023-06-14T03:02:00;10.10;99.90
33803;DHT22;20110;53.120;5.786;2023-06-14T03:04:26;10.00;99.90
33803;DHT22;20110;53.120;5.786;2023-06-14T03:06:54;10.00;99.90
33803;DHT22;20110;53.120;5.786;2023-06-14T03:09:20;10.00;99.90
33803;DHT22;20110;53.120;5.786;2023-06-14T03:11:47;10.00;99.90
33803;DHT22;20110;53.120;5.786;2023-06-14T03:14:13;10.00;99.90
33803;DHT22;20110;53.120;5.786;2023-06-14T03:16:39;10.00;99.90
33803;DHT22;20110;53.120;5.786;2023-06-14T03:19:07;10.00;99.90
33803;DHT22;20110;53.120;5.786;2023-06-14T03:21:32;10.00;99.90
33803;DHT22;20110;53.120;5.786;2023-06-14T03:24:00;10.00;99.90
33803;DHT22;20110;53.120;5.786;2023-06-14T03:26:26;10.00;99.90
33803;DHT22;20110;53.120;5.786;2023-06-14T03:28:51;10.00;99.90
33803;DHT22;20110;53.120;5.786;2023-06-14T03:31:17;10.00;99.90
33803;DHT22;20110;53.120;5.786;2023-06-14T03:33:44;10.00;99.90
33803;DHT22;20110;53.120;5.786;2023-06-14T03:36:10;10.00;99.90
33803;DHT22;20110;53.120;5.786;2023-06-14T03:38:36;10.00;99.90
33803;DHT22;20110;53.120;5.786;2023-06-14T03:41:02;10.00;99.90
33803;DHT22;20110;53.120;5.786;2023-06-14T03:43:28;10.10;99.90
33803;DHT22;20110;53.120;5.786;2023-06-14T03:45:56;10.10;99.90
33803;DHT22;20110;53.120;5.786;2023-06-14T03:48:22;10.10;99.90
33803;DHT22;20110;53.120;5.786;2023-06-14T03:50:48;10.10;99.90
33803;DHT22;20110;53.120;5.786;2023-06-14T03:53:14;10.10;99.90
33803;DHT22;20110;53.120;5.786;2023-06-14T03:55:40;10.10;99.90
33803;DHT22;20110;53.120;5.786;2023-06-14T03:58:07;10.20;99.90
33803;DHT22;20110;53.120;5.786;2023-06-14T04:00:32;10.20;99.90
33803;DHT22;20110;53.120;5.786;2023-06-14T04:02:58;10.20;99.90
33803;DHT22;20110;53.120;5.786;2023-06-14T04:05:25;10.30;99.90
33803;DHT22;20110;53.120;5.786;2023-06-14T04:07:52;10.30;99.90
33803;DHT22;20110;53.120;5.786;2023-06-14T04:10:21;10.40;99.90
33803;DHT22;20110;53.120;5.786;2023-06-14T04:12:48;10.40;99.90
33803;DHT22;20110;53.120;5.786;2023-06-14T04:15:16;10.50;99.90
33803;DHT22;20110;53.120;5.786;2023-06-14T04:17:42;10.50;99.90
33803;DHT22;20110;53.120;5.786;2023-06-14T04:20:08;10.60;99.90
33803;DHT22;20110;53.120;5.786;2023-06-14T04:22:36;10.70;99.90
33803;DHT22;20110;53.120;5.786;2023-06-14T04:25:02;10.80;99.90
33803;DHT22;20110;53.120;5.786;2023-06-14T04:27:28;10.90;99.90
33803;DHT22;20110;53.120;5.786;2023-06-14T04:29:56;10.90;99.90
33803;DHT22;20110;53.120;5.786;2023-06-14T04:32:24;11.00;99.90
33803;DHT22;20110;53.120;5.786;2023-06-14T04:34:55;11.10;99.90
33803;DHT22;20110;53.120;5.786;2023-06-14T04:37:23;11.20;99.90
33803;DHT22;20110;53.120;5.786;2023-06-14T04:39:49;11.20;99.90
33803;DHT22;20110;53.120;5.786;2023-06-14T04:42:16;11.30;99.90
33803;DHT22;20110;53.120;5.786;2023-06-14T04:44:45;11.40;99.90
33803;DHT22;20110;53.120;5.786;2023-06-14T04:47:13;11.40;99.90
33803;DHT22;20110;53.120;5.786;2023-06-14T04:49:39;11.50;99.90
33803;DHT22;20110;53.120;5.786;2023-06-14T04:52:06;11.60;99.90
33803;DHT22;20110;53.120;5.786;2023-06-14T04:54:36;11.70;99.90
33803;DHT22;20110;53.120;5.786;2023-06-14T04:57:07;11.70;99.90
33803;DHT22;20110;53.120;5.786;2023-06-14T04:59:34;11.70;99.90
33803;DHT22;20110;53.120;5.786;2023-06-14T05:02:01;11.80;99.90
33803;DHT22;20110;53.120;5.786;2023-06-14T05:04:27;11.90;99.90
33803;DHT22;20110;53.120;5.786;2023-06-14T05:06:53;12.00;99.90
33803;DHT22;20110;53.120;5.786;2023-06-14T05:09:22;12.10;99.90
33803;DHT22;20110;53.120;5.786;2023-06-14T05:11:48;12.20;99.90
33803;DHT22;20110;53.120;5.786;2023-06-14T05:14:15;12.30;99.90
33803;DHT22;20110;53.120;5.786;2023-06-14T05:16:41;12.40;99.90
33803;DHT22;20110;53.120;5.786;2023-06-14T05:19:08;12.40;99.90
33803;DHT22;20110;53.120;5.786;2023-06-14T05:21:36;12.50;99.90
33803;DHT22;20110;53.120;5.786;2023-06-14T05:24:03;12.60;99.90
33803;DHT22;20110;53.120;5.786;2023-06-14T05:26:29;12.60;99.90
33803;DHT22;20110;53.120;5.786;2023-06-14T05:28:58;12.70;99.90
33803;DHT22;20110;53.120;5.786;2023-06-14T05:31:27;12.80;99.90
33803;DHT22;20110;53.120;5.786;2023-06-14T05:33:53;12.90;99.90
33803;DHT22;20110;53.120;5.786;2023-06-14T05:36:20;13.00;99.90
33803;DHT22;20110;53.120;5.786;2023-06-14T05:38:48;13.20;99.90
33803;DHT22;20110;53.120;5.786;2023-06-14T05:41:16;13.30;99.90
33803;DHT22;20110;53.120;5.786;2023-06-14T05:43:42;13.30;99.90
33803;DHT22;20110;53.120;5.786;2023-06-14T05:46:08;13.50;99.90
33803;DHT22;20110;53.120;5.786;2023-06-14T05:48:34;13.60;99.90
33803;DHT22;20110;53.120;5.786;2023-06-14T05:51:00;13.70;99.90
33803;DHT22;20110;53.120;5.786;2023-06-14T05:53:25;13.80;99.90
33803;DHT22;20110;53.120;5.786;2023-06-14T05:55:51;13.90;99.90
33803;DHT22;20110;53.120;5.786;2023-06-14T05:58:19;14.00;1.00
33803;DHT22;20110;53.120;5.786;2023-06-14T06:00:45;14.10;99.90
33803;DHT22;20110;53.120;5.786;2023-06-14T06:03:11;14.20;99.90
33803;DHT22;20110;53.120;5.786;2023-06-14T06:05:38;14.30;99.90
33803;DHT22;20110;53.120;5.786;2023-06-14T06:08:05;14.40;99.90
33803;DHT22;20110;53.120;5.786;2023-06-14T06:10:31;14.50;1.00
33803;DHT22;20110;53.120;5.786;2023-06-14T06:12:57;14.60;1.00
33803;DHT22;20110;53.120;5.786;2023-06-14T06:15:23;14.70;99.90
33803;DHT22;20110;53.120;5.786;2023-06-14T06:17:49;14.80;99.90
33803;DHT22;20110;53.120;5.786;2023-06-14T06:20:16;14.90;99.90
33803;DHT22;20110;53.120;5.786;2023-06-14T06:22:43;15.00;99.90
33803;DHT22;20110;53.120;5.786;2023-06-14T06:25:09;15.10;32.70
33803;DHT22;20110;53.120;5.786;2023-06-14T06:27:35;15.20;1.00
33803;DHT22;20110;53.120;5.786;2023-06-14T06:30:03;15.30;1.00
33803;DHT22;20110;53.120;5.786;2023-06-14T06:32:29;15.50;1.00
33803;DHT22;20110;53.120;5.786;2023-06-14T06:34:55;15.60;1.00
33803;DHT22;20110;53.120;5.786;2023-06-14T06:37:21;15.70;99.90
33803;DHT22;20110;53.120;5.786;2023-06-14T06:39:46;15.80;99.90
33803;DHT22;20110;53.120;5.786;2023-06-14T06:42:13;15.80;99.90
33803;DHT22;20110;53.120;5.786;2023-06-14T06:44:39;15.90;99.90
33803;DHT22;20110;53.120;5.786;2023-06-14T06:47:05;16.00;99.90
33803;DHT22;20110;53.120;5.786;2023-06-14T06:49:31;16.20;99.90
33803;DHT22;20110;53.120;5.786;2023-06-14T06:52:04;16.40;99.90
33803;DHT22;20110;53.120;5.786;2023-06-14T06:54:32;16.50;99.90
33803;DHT22;20110;53.120;5.786;2023-06-14T06:56:58;16.50;99.90
33803;DHT22;20110;53.120;5.786;2023-06-14T06:59:25;16.60;99.90
33803;DHT22;20110;53.120;5.786;2023-06-14T07:01:51;16.70;99.90
33803;DHT22;20110;53.120;5.786;2023-06-14T07:04:17;16.80;99.90
33803;DHT22;20110;53.120;5.786;2023-06-14T07:06:43;17.00;99.90
33803;DHT22;20110;53.120;5.786;2023-06-14T07:09:09;17.10;99.90
33803;DHT22;20110;53.120;5.786;2023-06-14T07:11:41;17.10;57.40
33803;DHT22;20110;53.120;5.786;2023-06-14T07:14:08;17.10;59.70
33803;DHT22;20110;53.120;5.786;2023-06-14T07:16:34;17.20;52.10
33803;DHT22;20110;53.120;5.786;2023-06-14T07:19:02;17.30;77.80
33803;DHT22;20110;53.120;5.786;2023-06-14T07:21:28;17.50;50.00
33803;DHT22;20110;53.120;5.786;2023-06-14T07:23:54;17.60;1.00
33803;DHT22;20110;53.120;5.786;2023-06-14T07:26:20;17.70;10.40
33803;DHT22;20110;53.120;5.786;2023-06-14T07:28:47;17.90;7.30
33803;DHT22;20110;53.120;5.786;2023-06-14T07:31:17;18.00;1.00
33803;DHT22;20110;53.120;5.786;2023-06-14T07:33:44;17.90;1.00
33803;DHT22;20110;53.120;5.786;2023-06-14T07:36:10;18.10;1.00
33803;DHT22;20110;53.120;5.786;2023-06-14T07:38:36;18.30;1.00
33803;DHT22;20110;53.120;5.786;2023-06-14T07:41:02;18.40;1.00
33803;DHT22;20110;53.120;5.786;2023-06-14T07:43:28;18.50;1.00
33803;DHT22;20110;53.120;5.786;2023-06-14T07:45:54;18.50;1.00
33803;DHT22;20110;53.120;5.786;2023-06-14T07:48:21;18.50;1.00
33803;DHT22;20110;53.120;5.786;2023-06-14T07:50:47;18.70;1.00
33803;DHT22;20110;53.120;5.786;2023-06-14T07:53:13;18.80;99.90
33803;DHT22;20110;53.120;5.786;2023-06-14T07:55:38;18.80;1.00
33803;DHT22;20110;53.120;5.786;2023-06-14T07:58:06;18.90;1.00
33803;DHT22;20110;53.120;5.786;2023-06-14T08:00:32;19.10;99.90
33803;DHT22;20110;53.120;5.786;2023-06-14T08:02:58;19.10;99.90
33803;DHT22;20110;53.120;5.786;2023-06-14T08:05:28;19.20;99.90
33803;DHT22;20110;53.120;5.786;2023-06-14T08:07:54;19.30;99.90
33803;DHT22;20110;53.120;5.786;2023-06-14T08:10:21;19.30;99.90
33803;DHT22;20110;53.120;5.786;2023-06-14T08:12:48;19.40;99.90
33803;DHT22;20110;53.120;5.786;2023-06-14T08:15:16;19.30;99.90
33803;DHT22;20110;53.120;5.786;2023-06-14T08:17:43;19.30;99.90
33803;DHT22;20110;53.120;5.786;2023-06-14T08:20:10;19.50;99.90
33803;DHT22;20110;53.120;5.786;2023-06-14T08:22:37;19.70;99.90
33803;DHT22;20110;53.120;5.786;2023-06-14T08:25:03;19.80;99.90
33803;DHT22;20110;53.120;5.786;2023-06-14T08:27:30;19.90;99.90
33803;DHT22;20110;53.120;5.786;2023-06-14T08:29:56;20.10;99.90
33803;DHT22;20110;53.120;5.786;2023-06-14T08:32:22;20.30;99.90
33803;DHT22;20110;53.120;5.786;2023-06-14T08:34:48;20.40;99.90
33803;DHT22;20110;53.120;5.786;2023-06-14T08:37:14;20.40;99.90
33803;DHT22;20110;53.120;5.786;2023-06-14T08:39:40;20.20;99.90
33803;DHT22;20110;53.120;5.786;2023-06-14T08:42:07;20.30;99.90
33803;DHT22;20110;53.120;5.786;2023-06-14T08:44:35;20.40;99.90
33803;DHT22;20110;53.120;5.786;2023-06-14T08:47:01;20.50;99.90
33803;DHT22;20110;53.120;5.786;2023-06-14T08:49:29;20.60;99.90
33803;DHT22;20110;53.120;5.786;2023-06-14T08:51:58;20.70;99.90
33803;DHT22;20110;53.120;5.786;2023-06-14T08:54:29;20.70;99.90
33803;DHT22;20110;53.120;5.786;2023-06-14T08:56:59;20.80;99.90
33803;DHT22;20110;53.120;5.786;2023-06-14T08:59:28;20.80;99.90
33803;DHT22;20110;53.120;5.786;2023-06-14T09:01:56;20.90;99.90
33803;DHT22;20110;53.120;5.786;2023-06-14T09:04:23;20.80;99.90
33803;DHT22;20110;53.120;5.786;2023-06-14T09:06:55;20.80;99.90
33803;DHT22;20110;53.120;5.786;2023-06-14T09:09:22;21.20;99.90
33803;DHT22;20110;53.120;5.786;2023-06-14T09:11:50;21.40;99.90
33803;DHT22;20110;53.120;5.786;2023-06-14T09:14:17;21.40;99.90
33803;DHT22;20110;53.120;5.786;2023-06-14T09:16:44;21.40;99.90
33803;DHT22;20110;53.120;5.786;2023-06-14T09:19:20;21.60;99.90
33803;DHT22;20110;53.120;5.786;2023-06-14T09:21:50;21.80;99.90
33803;DHT22;20110;53.120;5.786;2023-06-14T09:24:18;22.00;99.90
33803;DHT22;20110;53.120;5.786;2023-06-14T09:26:47;22.00;99.90
33803;DHT22;20110;53.120;5.786;2023-06-14T09:29:13;22.00;99.90
33803;DHT22;20110;53.120;5.786;2023-06-14T09:31:41;22.00;99.90
33803;DHT22;20110;53.120;5.786;2023-06-14T09:34:09;22.20;99.90
33803;DHT22;20110;53.120;5.786;2023-06-14T09:36:35;22.20;99.90
33803;DHT22;20110;53.120;5.786;2023-06-14T09:39:02;22.30;99.90
33803;DHT22;20110;53.120;5.786;2023-06-14T09:44:04;22.20;99.90
33803;DHT22;20110;53.120;5.786;2023-06-14T09:46:32;22.20;99.90
33803;DHT22;20110;53.120;5.786;2023-06-14T09:48:59;22.40;99.90
33803;DHT22;20110;53.120;5.786;2023-06-14T09:51:26;22.60;99.90
33803;DHT22;20110;53.120;5.786;2023-06-14T09:53:55;22.80;99.90
33803;DHT22;20110;53.120;5.786;2023-06-14T09:56:28;23.10;99.90
33803;DHT22;20110;53.120;5.786;2023-06-14T09:58:58;23.20;99.90
33803;DHT22;20110;53.120;5.786;2023-06-14T10:01:26;23.20;99.90
33803;DHT22;20110;53.120;5.786;2023-06-14T10:03:58;23.30;99.90
33803;DHT22;20110;53.120;5.786;2023-06-14T10:06:29;23.40;99.90
33803;DHT22;20110;53.120;5.786;2023-06-14T10:08:57;23.40;99.90
33803;DHT22;20110;53.120;5.786;2023-06-14T10:11:26;23.50;99.90
33803;DHT22;20110;53.120;5.786;2023-06-14T10:13:55;23.70;99.90
33803;DHT22;20110;53.120;5.786;2023-06-14T10:16:36;23.80;99.90
33803;DHT22;20110;53.120;5.786;2023-06-14T10:19:20;24.00;99.90
33803;DHT22;20110;53.120;5.786;2023-06-14T10:22:01;24.50;99.90
33803;DHT22;20110;53.120;5.786;2023-06-14T10:24:41;25.10;99.90
33803;DHT22;20110;53.120;5.786;2023-06-14T10:27:09;25.60;99.90
33803;DHT22;20110;53.120;5.786;2023-06-14T10:32:22;26.60;99.90
33803;DHT22;20110;53.120;5.786;2023-06-14T10:35:07;27.30;99.90
33803;DHT22;20110;53.120;5.786;2023-06-14T10:37:33;27.80;99.90
33803;DHT22;20110;53.120;5.786;2023-06-14T10:39:59;27.60;99.90
33803;DHT22;20110;53.120;5.786;2023-06-14T10:42:31;28.00;99.90
33803;DHT22;20110;53.120;5.786;2023-06-14T10:44:58;28.20;1.30
33803;DHT22;20110;53.120;5.786;2023-06-14T10:47:33;28.30;15.20
33803;DHT22;20110;53.120;5.786;2023-06-14T10:50:06;28.70;11.60
33803;DHT22;20110;53.120;5.786;2023-06-14T10:52:43;28.90;8.00
33803;DHT22;20110;53.120;5.786;2023-06-14T10:55:16;29.60;13.30
33803;DHT22;20110;53.120;5.786;2023-06-14T10:57:44;30.10;1.00
33803;DHT22;20110;53.120;5.786;2023-06-14T11:00:12;30.30;1.00
33803;DHT22;20110;53.120;5.786;2023-06-14T11:05:50;30.10;1.00
33803;DHT22;20110;53.120;5.786;2023-06-14T11:08:28;30.10;1.00
33803;DHT22;20110;53.120;5.786;2023-06-14T11:11:07;29.80;1.00
33803;DHT22;20110;53.120;5.786;2023-06-14T11:13:38;30.30;1.00
33803;DHT22;20110;53.120;5.786;2023-06-14T11:16:13;30.20;1.00
33803;DHT22;20110;53.120;5.786;2023-06-14T11:18:41;30.40;1.00
33803;DHT22;20110;53.120;5.786;2023-06-14T11:21:07;30.80;1.00
33803;DHT22;20110;53.120;5.786;2023-06-14T11:23:35;31.30;1.00
33803;DHT22;20110;53.120;5.786;2023-06-14T11:26:01;31.00;1.00
33803;DHT22;20110;53.120;5.786;2023-06-14T11:28:40;31.40;1.00
33803;DHT22;20110;53.120;5.786;2023-06-14T11:31:07;31.70;1.00
33803;DHT22;20110;53.120;5.786;2023-06-14T11:33:34;31.80;1.00
33803;DHT22;20110;53.120;5.786;2023-06-14T11:36:02;31.50;1.00
33803;DHT22;20110;53.120;5.786;2023-06-14T11:38:30;32.00;1.00
33803;DHT22;20110;53.120;5.786;2023-06-14T11:40:59;31.70;1.00
33803;DHT22;20110;53.120;5.786;2023-06-14T11:43:26;31.50;1.00
33803;DHT22;20110;53.120;5.786;2023-06-14T11:45:52;31.40;1.00
33803;DHT22;20110;53.120;5.786;2023-06-14T11:48:18;32.00;1.00
33803;DHT22;20110;53.120;5.786;2023-06-14T11:50:49;31.60;1.00
33803;DHT22;20110;53.120;5.786;2023-06-14T11:53:17;31.10;1.00
33803;DHT22;20110;53.120;5.786;2023-06-14T11:55:43;30.70;1.00
33803;DHT22;20110;53.120;5.786;2023-06-14T11:58:11;30.80;1.00
33803;DHT22;20110;53.120;5.786;2023-06-14T12:00:37;30.80;1.00
33803;DHT22;20110;53.120;5.786;2023-06-14T12:03:03;31.20;1.00
33803;DHT22;20110;53.120;5.786;2023-06-14T12:05:29;31.50;1.00
33803;DHT22;20110;53.120;5.786;2023-06-14T12:08:00;31.60;1.00
33803;DHT22;20110;53.120;5.786;2023-06-14T12:10:28;31.30;1.00
33803;DHT22;20110;53.120;5.786;2023-06-14T12:12:58;31.70;1.00
33803;DHT22;20110;53.120;5.786;2023-06-14T12:15:27;32.00;1.00
33803;DHT22;20110;53.120;5.786;2023-06-14T12:17:55;31.80;1.00
33803;DHT22;20110;53.120;5.786;2023-06-14T12:20:21;31.90;1.00
33803;DHT22;20110;53.120;5.786;2023-06-14T12:22:51;31.70;1.00
33803;DHT22;20110;53.120;5.786;2023-06-14T12:27:58;32.10;1.00
33803;DHT22;20110;53.120;5.786;2023-06-14T12:30:25;32.70;1.00
33803;DHT22;20110;53.120;5.786;2023-06-14T12:32:51;32.70;1.00
33803;DHT22;20110;53.120;5.786;2023-06-14T12:35:17;32.30;1.00
33803;DHT22;20110;53.120;5.786;2023-06-14T12:37:46;32.00;1.00
33803;DHT22;20110;53.120;5.786;2023-06-14T12:40:13;32.10;1.00
33803;DHT22;20110;53.120;5.786;2023-06-14T12:42:40;31.50;1.00
33803;DHT22;20110;53.120;5.786;2023-06-14T12:45:07;31.20;1.00
33803;DHT22;20110;53.120;5.786;2023-06-14T12:47:33;30.90;1.00
33803;DHT22;20110;53.120;5.786;2023-06-14T12:49:59;31.40;1.00
33803;DHT22;20110;53.120;5.786;2023-06-14T12:52:25;31.00;1.00
33803;DHT22;20110;53.120;5.786;2023-06-14T12:54:51;31.00;1.00
33803;DHT22;20110;53.120;5.786;2023-06-14T12:57:16;30.40;1.00
33803;DHT22;20110;53.120;5.786;2023-06-14T12:59:42;31.00;1.00
33803;DHT22;20110;53.120;5.786;2023-06-14T13:02:16;31.10;1.00
33803;DHT22;20110;53.120;5.786;2023-06-14T13:04:43;30.70;1.00
33803;DHT22;20110;53.120;5.786;2023-06-14T13:07:10;30.60;1.00
33803;DHT22;20110;53.120;5.786;2023-06-14T13:09:36;31.20;1.00
33803;DHT22;20110;53.120;5.786;2023-06-14T13:12:03;30.90;1.00
33803;DHT22;20110;53.120;5.786;2023-06-14T13:14:29;31.00;1.00
33803;DHT22;20110;53.120;5.786;2023-06-14T13:16:55;30.40;99.90
33803;DHT22;20110;53.120;5.786;2023-06-14T13:19:21;30.30;99.90
33803;DHT22;20110;53.120;5.786;2023-06-14T13:21:48;29.90;1.00
33803;DHT22;20110;53.120;5.786;2023-06-14T13:24:14;30.10;1.00
33803;DHT22;20110;53.120;5.786;2023-06-14T13:26:40;30.30;1.00
33803;DHT22;20110;53.120;5.786;2023-06-14T13:29:06;29.90;1.00
33803;DHT22;20110;53.120;5.786;2023-06-14T13:31:31;30.00;1.00
33803;DHT22;20110;53.120;5.786;2023-06-14T13:33:57;29.90;1.00
33803;DHT22;20110;53.120;5.786;2023-06-14T13:36:23;29.80;1.00
33803;DHT22;20110;53.120;5.786;2023-06-14T13:38:50;29.50;99.90
33803;DHT22;20110;53.120;5.786;2023-06-14T13:41:18;29.50;1.00
33803;DHT22;20110;53.120;5.786;2023-06-14T13:43:43;29.50;1.00
33803;DHT22;20110;53.120;5.786;2023-06-14T13:46:09;29.80;1.00
33803;DHT22;20110;53.120;5.786;2023-06-14T13:48:35;29.80;1.00
33803;DHT22;20110;53.120;5.786;2023-06-14T13:51:01;29.30;1.00
33803;DHT22;20110;53.120;5.786;2023-06-14T13:53:29;29.10;1.00
33803;DHT22;20110;53.120;5.786;2023-06-14T13:55:55;28.70;1.00
33803;DHT22;20110;53.120;5.786;2023-06-14T13:58:22;28.90;1.00
33803;DHT22;20110;53.120;5.786;2023-06-14T14:00:49;28.70;1.00
33803;DHT22;20110;53.120;5.786;2023-06-14T14:03:15;28.80;1.00
33803;DHT22;20110;53.120;5.786;2023-06-14T14:05:41;28.80;1.00
33803;DHT22;20110;53.120;5.786;2023-06-14T14:08:07;28.60;1.00
33803;DHT22;20110;53.120;5.786;2023-06-14T14:10:34;28.50;1.00
33803;DHT22;20110;53.120;5.786;2023-06-14T14:13:00;28.40;1.00
33803;DHT22;20110;53.120;5.786;2023-06-14T14:15:26;28.10;1.00
33803;DHT22;20110;53.120;5.786;2023-06-14T14:17:53;27.90;1.00
33803;DHT22;20110;53.120;5.786;2023-06-14T14:20:20;27.50;1.00
33803;DHT22;20110;53.120;5.786;2023-06-14T14:22:46;27.30;1.00
33803;DHT22;20110;53.120;5.786;2023-06-14T14:25:11;27.60;1.00
33803;DHT22;20110;53.120;5.786;2023-06-14T14:27:37;27.30;1.00
33803;DHT22;20110;53.120;5.786;2023-06-14T14:30:04;27.00;1.00
33803;DHT22;20110;53.120;5.786;2023-06-14T14:32:30;26.90;1.00
33803;DHT22;20110;53.120;5.786;2023-06-14T14:34:56;27.00;1.00
33803;DHT22;20110;53.120;5.786;2023-06-14T14:37:22;26.90;1.00
33803;DHT22;20110;53.120;5.786;2023-06-14T14:39:48;26.90;1.00
33803;DHT22;20110;53.120;5.786;2023-06-14T14:42:13;27.10;1.00
33803;DHT22;20110;53.120;5.786;2023-06-14T14:44:39;26.90;1.00
33803;DHT22;20110;53.120;5.786;2023-06-14T14:47:06;26.90;1.00
33803;DHT22;20110;53.120;5.786;2023-06-14T14:49:32;27.00;1.00
33803;DHT22;20110;53.120;5.786;2023-06-14T14:51:58;27.20;1.00
33803;DHT22;20110;53.120;5.786;2023-06-14T14:54:24;27.40;1.00
33803;DHT22;20110;53.120;5.786;2023-06-14T14:56:51;27.40;1.00
33803;DHT22;20110;53.120;5.786;2023-06-14T14:59:17;27.50;1.00
33803;DHT22;20110;53.120;5.786;2023-06-14T15:01:44;27.40;1.00
33803;DHT22;20110;53.120;5.786;2023-06-14T15:04:11;27.10;1.00
33803;DHT22;20110;53.120;5.786;2023-06-14T15:06:37;26.80;1.00
33803;DHT22;20110;53.120;5.786;2023-06-14T15:09:06;26.30;1.00
33803;DHT22;20110;53.120;5.786;2023-06-14T15:11:32;26.20;1.00
33803;DHT22;20110;53.120;5.786;2023-06-14T15:13:58;26.30;1.00
33803;DHT22;20110;53.120;5.786;2023-06-14T15:16:24;26.30;1.00
33803;DHT22;20110;53.120;5.786;2023-06-14T15:18:50;26.20;1.00
33803;DHT22;20110;53.120;5.786;2023-06-14T15:21:15;25.90;1.00
33803;DHT22;20110;53.120;5.786;2023-06-14T15:23:43;25.70;1.00
33803;DHT22;20110;53.120;5.786;2023-06-14T15:26:08;25.50;1.00
33803;DHT22;20110;53.120;5.786;2023-06-14T15:28:34;25.20;1.00
33803;DHT22;20110;53.120;5.786;2023-06-14T15:31:00;25.10;1.00
33803;DHT22;20110;53.120;5.786;2023-06-14T15:33:26;25.00;9.60
33803;DHT22;20110;53.120;5.786;2023-06-14T15:35:52;24.80;34.50
33803;DHT22;20110;53.120;5.786;2023-06-14T15:38:20;24.60;41.40
33803;DHT22;20110;53.120;5.786;2023-06-14T15:40:47;24.30;70.00
33803;DHT22;20110;53.120;5.786;2023-06-14T15:43:13;24.20;92.90
33803;DHT22;20110;53.120;5.786;2023-06-14T15:45:39;24.00;99.90
33803;DHT22;20110;53.120;5.786;2023-06-14T15:48:05;23.80;99.90
33803;DHT22;20110;53.120;5.786;2023-06-14T15:50:31;23.70;99.90
33803;DHT22;20110;53.120;5.786;2023-06-14T15:52:57;23.70;99.90